KEYE

Eagle Creek Airpark

Indianapolis, Indiana, USA
METAR KEYE 211303Z AUTO 01010KT 10SM -RA BKN013 BKN065 OVC100 04/02 A3033 RMK AO2 P0001 T00390017
Observed Flight Rules
Feb-21 @ 13:03 UTC (19 minutes ago) Marginal Visual Flight Rules
Wind Visibility Clouds Conditions
10° at 10 knots 10 miles
  • Broken at 1,300' AGL
  • Broken at 6,500' AGL
  • Overcast at 10,000' AGL
  • Light Rain
Temperatures Readings Precipitation
Current 4°C / 39°F
Dewpoint 2°C / 36°F
Humidity 87%
Altimeter 30.33" Hg
Pressure 1027 hPa
Elevation 248
Current Rain 0.01
METAR KEYE 211303Z AUTO 01010KT 10SM -RA BKN013 BKN065 OVC100 04/02 A3033 RMK AO2 P0001 T00390017
Observed Flight Rules
Feb-21 @ 13:03 UTC
(19 minutes ago)
MVFR
Wind Visibility
10° at 10 knots 10 miles
Clouds
  • Broken at 1,300' AGL
  • Broken at 6,500' AGL
  • Overcast at 10,000' AGL
Conditions
  • Light Rain
Temperature Dewpoint
4°C / 39°F 2°C / 36°F
Humidity Altimeter Pressure
87% 30.33" Hg 1027 hPa
Current Rain
0.01